Newton, Illinois
Current Conditions -  °F | °C
As of 9:35 PM on Monday 26 Jan 2015 (Local Time) from KOLY Reporting Station
Haze Haze  
Wind Chill: 30°   Ceiling: 2000
Heat Index: 30°   Visibility: 4mi
Dew Point: 28°   Wind: 0mph
Humidity: 93%   Direction: NA
Pressure: 29.93"   Gusts: NA
Location:  38.99°N, 88.16°W
Report Text: KOLY 270335Z AUTO 00000KT 4SM BR SCT005 SCT008 OVC020 M01/M02 A2993 RMK AO2
Loading
Personal Weather Stations






























Interactive Weather Map New forecast layout! Learn more

10-Day Weather Forecast

Advertisements
Track Severe Weather on mobile